createdAt,value
2022-12-18T00:01:23.575Z,-13.02
2022-12-18T00:03:29.660Z,-13.03
2022-12-18T00:05:34.776Z,-13.15
2022-12-18T00:07:43.255Z,-13.00
2022-12-18T00:09:49.144Z,-13.06
2022-12-18T00:11:54.200Z,-13.09
2022-12-18T00:14:02.285Z,-12.89
2022-12-18T00:16:08.980Z,-12.83
2022-12-18T00:18:18.951Z,-13.05
2022-12-18T00:20:27.117Z,-13.25
2022-12-18T00:22:32.149Z,-13.18
2022-12-18T00:24:39.731Z,-12.99
2022-12-18T00:26:44.693Z,-13.21
2022-12-18T00:28:50.618Z,-13.38
2022-12-18T00:31:02.948Z,-13.48
2022-12-18T00:33:08.063Z,-13.13
2022-12-18T00:35:13.304Z,-13.10
2022-12-18T00:37:20.340Z,-12.82
2022-12-18T00:39:29.801Z,-12.71
2022-12-18T00:41:50.296Z,-12.86
2022-12-18T00:43:55.553Z,-13.07
2022-12-18T00:46:00.583Z,-13.22
2022-12-18T00:48:06.727Z,-13.42
2022-12-18T00:50:13.728Z,-13.51
2022-12-18T00:52:19.961Z,-13.38
2022-12-18T00:54:25.259Z,-13.22
2022-12-18T00:56:30.622Z,-13.14
2022-12-18T00:58:38.659Z,-13.15
2022-12-18T01:00:44.005Z,-13.26
2022-12-18T01:02:49.977Z,-13.37
2022-12-18T01:04:56.380Z,-13.38
2022-12-18T01:07:01.461Z,-13.40
2022-12-18T01:09:06.932Z,-13.36
2022-12-18T01:11:18.528Z,-13.39
2022-12-18T01:13:23.844Z,-13.58
2022-12-18T01:15:31.868Z,-13.56
2022-12-18T01:17:37.993Z,-13.49
2022-12-18T01:19:43.015Z,-13.52
2022-12-18T01:21:49.005Z,-13.51
2022-12-18T01:23:56.985Z,-13.38
2022-12-18T01:26:07.494Z,-13.23
2022-12-18T01:28:14.075Z,-13.38
2022-12-18T01:30:19.944Z,-13.55
2022-12-18T01:32:27.509Z,-13.63
2022-12-18T01:34:32.558Z,-13.72
2022-12-18T01:36:40.527Z,-13.68
2022-12-18T01:38:45.733Z,-13.41
2022-12-18T01:40:50.724Z,-13.19
2022-12-18T01:42:57.497Z,-13.29
2022-12-18T01:45:26.849Z,-13.20
2022-12-18T01:47:41.590Z,-13.23
2022-12-18T01:49:46.899Z,-13.17
2022-12-18T01:51:51.938Z,-13.13
2022-12-18T01:53:57.159Z,-13.14
2022-12-18T01:56:03.733Z,-13.24
2022-12-18T01:58:09.394Z,-13.20
2022-12-18T02:00:20.540Z,-13.16
2022-12-18T02:02:26.432Z,-13.23
2022-12-18T02:04:34.193Z,-13.06
2022-12-18T02:06:45.040Z,-13.02
2022-12-18T02:09:06.032Z,-12.99
2022-12-18T02:11:19.202Z,-13.16
2022-12-18T02:13:35.929Z,-13.19
2022-12-18T02:15:48.402Z,-13.21
2022-12-18T02:18:00.739Z,-13.44
2022-12-18T02:20:16.121Z,-13.60
2022-12-18T02:22:35.800Z,-13.42
2022-12-18T02:25:02.459Z,-13.62
2022-12-18T02:27:13.824Z,-13.64
2022-12-18T02:29:28.423Z,-13.48
2022-12-18T02:31:40.264Z,-13.45
2022-12-18T02:33:47.762Z,-13.41
2022-12-18T02:35:55.181Z,-13.40
2022-12-18T02:38:01.200Z,-13.47
2022-12-18T02:40:12.085Z,-13.43
2022-12-18T02:42:21.315Z,-13.37
2022-12-18T02:44:27.391Z,-13.53
2022-12-18T02:46:41.597Z,-13.53
2022-12-18T02:48:52.913Z,-13.65
2022-12-18T02:51:07.743Z,-13.81
2022-12-18T02:53:21.272Z,-13.68
2022-12-18T02:55:42.418Z,-13.60
2022-12-18T02:57:57.748Z,-13.61
2022-12-18T03:00:13.895Z,-13.88
2022-12-18T03:02:27.437Z,-14.00
2022-12-18T03:04:41.983Z,-13.88
2022-12-18T03:06:52.936Z,-13.88
2022-12-18T03:09:04.728Z,-13.73
2022-12-18T03:11:14.066Z,-13.81
2022-12-18T03:13:33.736Z,-13.92
2022-12-18T03:15:43.707Z,-13.96
2022-12-18T03:18:00.009Z,-13.98
2022-12-18T03:20:13.583Z,-14.03
2022-12-18T03:22:21.696Z,-13.94
2022-12-18T03:24:34.242Z,-14.16
2022-12-18T03:26:43.896Z,-14.06
2022-12-18T03:28:59.983Z,-14.22
2022-12-18T03:31:09.212Z,-14.22
2022-12-18T03:33:20.669Z,-14.36
2022-12-18T03:35:35.049Z,-14.17
2022-12-18T03:37:40.701Z,-14.07
2022-12-18T03:39:46.868Z,-14.07
2022-12-18T03:42:00.384Z,-14.16
2022-12-18T03:44:27.281Z,-14.34
2022-12-18T03:46:44.451Z,-14.44
2022-12-18T03:48:56.151Z,-14.56
2022-12-18T03:51:05.640Z,-14.59
2022-12-18T03:53:27.067Z,-14.37
2022-12-18T03:55:37.121Z,-14.24
2022-12-18T03:57:46.297Z,-13.99
2022-12-18T04:00:00.587Z,-13.84
2022-12-18T04:02:20.974Z,-13.94
2022-12-18T04:04:28.410Z,-14.09
2022-12-18T04:06:35.540Z,-14.06
2022-12-18T04:08:41.143Z,-14.23
2022-12-18T04:10:49.528Z,-14.22
2022-12-18T04:12:54.763Z,-14.25
2022-12-18T04:15:02.816Z,-14.09
2022-12-18T04:17:08.419Z,-14.22
2022-12-18T04:19:13.472Z,-14.40
2022-12-18T04:21:20.892Z,-14.37
2022-12-18T04:23:28.207Z,-14.29
2022-12-18T04:25:36.199Z,-14.34
2022-12-18T04:27:45.801Z,-14.49
2022-12-18T04:29:51.754Z,-14.40
2022-12-18T04:32:00.464Z,-14.42
2022-12-18T04:34:08.454Z,-14.27
2022-12-18T04:36:19.624Z,-14.51
2022-12-18T04:38:26.194Z,-14.52
2022-12-18T04:40:41.691Z,-14.48
2022-12-18T04:42:53.924Z,-14.40
2022-12-18T04:44:59.584Z,-14.38
2022-12-18T04:47:08.498Z,-14.47
2022-12-18T04:49:14.121Z,-14.34
2022-12-18T04:51:25.959Z,-14.35
2022-12-18T04:53:32.355Z,-14.27
2022-12-18T04:55:37.657Z,-14.24
2022-12-18T04:57:43.046Z,-14.25
2022-12-18T04:59:48.404Z,-14.42
2022-12-18T05:01:53.401Z,-14.42
2022-12-18T05:04:01.647Z,-14.41
2022-12-18T05:06:08.051Z,-14.49
2022-12-18T05:08:13.415Z,-14.51
2022-12-18T05:10:18.420Z,-14.25
2022-12-18T05:12:29.242Z,-14.47
2022-12-18T05:14:34.188Z,-14.50
2022-12-18T05:16:39.220Z,-14.54
2022-12-18T05:18:44.753Z,-14.50
2022-12-18T05:20:53.797Z,-14.59
2022-12-18T05:22:59.580Z,-14.82
2022-12-18T05:25:04.606Z,-14.77
2022-12-18T05:27:09.503Z,-14.62
2022-12-18T05:29:15.362Z,-14.54
2022-12-18T05:31:20.806Z,-14.46
2022-12-18T05:33:28.293Z,-14.52
2022-12-18T05:35:33.574Z,-14.60
2022-12-18T05:37:43.502Z,-14.67
2022-12-18T05:39:48.733Z,-14.72
2022-12-18T05:41:53.692Z,-14.78
2022-12-18T05:43:58.777Z,-14.82
2022-12-18T05:46:08.593Z,-14.84
2022-12-18T05:48:17.320Z,-14.92
2022-12-18T05:50:22.276Z,-14.80
2022-12-18T05:52:27.564Z,-14.76
2022-12-18T05:54:35.280Z,-14.69
2022-12-18T05:56:44.167Z,-14.73
2022-12-18T05:58:56.568Z,-14.84
2022-12-18T06:01:02.045Z,-14.66
2022-12-18T06:03:07.133Z,-14.79
2022-12-18T06:05:12.343Z,-14.68
2022-12-18T06:07:17.250Z,-14.80
2022-12-18T06:09:22.161Z,-14.71
2022-12-18T06:11:30.837Z,-14.91
2022-12-18T06:13:36.228Z,-14.73
2022-12-18T06:15:41.629Z,-14.84
2022-12-18T06:17:46.992Z,-14.84
2022-12-18T06:19:51.911Z,-14.79
2022-12-18T06:21:58.791Z,-14.76
2022-12-18T06:24:04.638Z,-14.68
2022-12-18T06:26:11.618Z,-14.89
2022-12-18T06:28:19.269Z,-15.04
2022-12-18T06:30:24.689Z,-15.08
2022-12-18T06:32:30.121Z,-15.09
2022-12-18T06:34:36.357Z,-15.15
2022-12-18T06:36:41.840Z,-15.28
2022-12-18T06:38:48.156Z,-15.37
2022-12-18T06:40:53.044Z,-15.47
2022-12-18T06:42:58.675Z,-15.52
2022-12-18T06:45:07.564Z,-15.35
2022-12-18T06:47:12.696Z,-15.37
2022-12-18T06:49:17.899Z,-15.13
2022-12-18T06:51:25.134Z,-15.13
2022-12-18T06:53:30.524Z,-15.20
2022-12-18T06:55:36.161Z,-15.05
2022-12-18T06:57:41.796Z,-15.07
2022-12-18T06:59:46.704Z,-14.95
2022-12-18T07:01:54.687Z,-15.07
2022-12-18T07:04:01.692Z,-15.01
2022-12-18T07:06:07.270Z,-14.94
2022-12-18T07:08:12.731Z,-14.76
2022-12-18T07:10:17.693Z,-14.66
2022-12-18T07:12:22.797Z,-14.83
2022-12-18T07:14:28.110Z,-14.93
2022-12-18T07:16:33.579Z,-14.89
2022-12-18T07:18:41.145Z,-14.69
2022-12-18T07:20:46.167Z,-14.69
2022-12-18T07:22:56.248Z,-14.60
2022-12-18T07:25:01.431Z,-14.72
2022-12-18T07:27:06.578Z,-14.69
2022-12-18T07:29:13.321Z,-14.82
2022-12-18T07:31:23.291Z,-14.81
2022-12-18T07:33:28.581Z,-14.70
2022-12-18T07:35:37.110Z,-14.81
2022-12-18T07:37:42.327Z,-14.86
2022-12-18T07:39:47.903Z,-14.78
2022-12-18T07:42:07.647Z,-14.83
2022-12-18T07:44:13.941Z,-14.64
2022-12-18T07:46:20.320Z,-14.68
2022-12-18T07:48:25.601Z,-14.69
2022-12-18T07:50:30.500Z,-14.71
2022-12-18T07:52:38.016Z,-14.74
2022-12-18T07:54:43.531Z,-14.67
2022-12-18T07:56:48.502Z,-14.55
2022-12-18T07:58:53.929Z,-14.55
2022-12-18T08:01:07.054Z,-14.50
2022-12-18T08:03:14.411Z,-14.44
2022-12-18T08:05:19.839Z,-14.34
2022-12-18T08:07:24.785Z,-14.30
2022-12-18T08:09:32.279Z,-14.21
2022-12-18T08:11:37.230Z,-14.10
2022-12-18T08:13:42.466Z,-13.72
2022-12-18T08:15:47.614Z,-13.77
2022-12-18T08:17:52.590Z,-13.73
2022-12-18T08:19:57.519Z,-13.60
2022-12-18T08:22:02.906Z,-13.44
2022-12-18T08:24:09.173Z,-13.29
2022-12-18T08:26:17.595Z,-13.15
2022-12-18T08:28:23.048Z,-12.92
2022-12-18T08:30:28.102Z,-12.83
2022-12-18T08:32:34.393Z,-12.78
2022-12-18T08:34:39.719Z,-12.77
2022-12-18T08:36:44.694Z,-12.39
2022-12-18T08:38:50.267Z,-12.48
2022-12-18T08:41:03.022Z,-12.33
2022-12-18T08:43:25.407Z,-12.28
2022-12-18T08:45:31.625Z,-12.31
2022-12-18T08:47:36.564Z,-12.11
2022-12-18T08:49:41.700Z,-12.17
2022-12-18T08:51:47.116Z,-12.11
2022-12-18T08:53:52.366Z,-12.13
2022-12-18T08:55:57.537Z,-12.04
2022-12-18T08:58:02.482Z,-11.87
2022-12-18T09:00:14.476Z,-11.89
2022-12-18T09:02:20.341Z,-11.78
2022-12-18T09:04:25.463Z,-11.69
2022-12-18T09:06:31.015Z,-11.59
2022-12-18T09:08:39.635Z,-11.63
2022-12-18T09:10:50.551Z,-11.52
2022-12-18T09:12:57.136Z,-11.38
2022-12-18T09:15:02.796Z,-11.32
2022-12-18T09:17:10.591Z,-11.30
2022-12-18T09:19:15.785Z,-11.07
2022-12-18T09:21:24.439Z,-11.02
2022-12-18T09:23:29.377Z,-10.97
2022-12-18T09:25:36.811Z,-10.87
2022-12-18T09:27:41.739Z,-10.79
2022-12-18T09:29:46.821Z,-10.76
2022-12-18T09:31:52.700Z,-10.65
2022-12-18T09:34:01.564Z,-10.62
2022-12-18T09:36:08.773Z,-10.41
2022-12-18T09:38:17.762Z,-10.35
2022-12-18T09:40:27.256Z,-10.31
2022-12-18T09:42:32.951Z,-10.15
2022-12-18T09:44:45.907Z,-9.96
2022-12-18T09:46:58.836Z,-9.82
2022-12-18T09:49:14.008Z,-9.63
2022-12-18T09:51:22.488Z,-9.57
2022-12-18T09:53:34.346Z,-9.41
2022-12-18T09:55:43.938Z,-9.46
2022-12-18T09:57:59.514Z,-9.38
2022-12-18T10:00:17.257Z,-9.49
2022-12-18T10:02:25.326Z,-9.33
2022-12-18T10:04:35.700Z,-9.27
2022-12-18T10:06:52.449Z,-9.17
2022-12-18T10:09:07.632Z,-9.14
2022-12-18T10:11:33.680Z,-8.97
2022-12-18T10:13:44.992Z,-8.80
2022-12-18T10:16:05.287Z,-8.74
2022-12-18T10:18:27.280Z,-8.60
2022-12-18T10:20:45.387Z,-8.48
2022-12-18T10:23:01.696Z,-8.56
2022-12-18T10:25:17.764Z,-8.55
2022-12-18T10:27:28.605Z,-8.44
2022-12-18T10:29:33.700Z,-8.31
2022-12-18T10:31:38.649Z,-8.38
2022-12-18T10:33:44.534Z,-8.25
2022-12-18T10:35:54.501Z,-7.90
2022-12-18T10:38:26.662Z,-7.86
2022-12-18T10:40:31.768Z,-7.73
2022-12-18T10:42:36.872Z,-7.80
2022-12-18T10:44:41.792Z,-7.67
2022-12-18T10:46:47.754Z,-7.75
2022-12-18T10:48:58.147Z,-7.61
2022-12-18T10:51:13.072Z,-7.52
2022-12-18T10:53:25.402Z,-7.31
2022-12-18T10:55:36.763Z,-7.17
2022-12-18T10:57:44.055Z,-7.00
2022-12-18T10:59:58.375Z,-6.86
2022-12-18T11:02:03.792Z,-6.71
2022-12-18T11:04:13.206Z,-6.45
2022-12-18T11:06:25.706Z,-6.30
2022-12-18T11:08:30.626Z,-6.44
2022-12-18T11:10:37.743Z,-6.09
2022-12-18T11:12:43.466Z,-6.16
2022-12-18T11:14:52.249Z,-6.15
2022-12-18T11:19:35.510Z,-6.23
2022-12-18T11:21:46.983Z,-6.22
2022-12-18T11:23:56.021Z,-6.36
2022-12-18T11:26:04.404Z,-6.44
2022-12-18T11:28:39.592Z,-6.42
2022-12-18T11:30:44.770Z,-6.25
2022-12-18T11:32:52.638Z,-6.03
2022-12-18T11:35:06.762Z,-5.80
2022-12-18T11:37:20.140Z,-5.70
2022-12-18T11:39:34.983Z,-5.65
2022-12-18T11:42:04.203Z,-5.36
2022-12-18T11:44:12.780Z,-5.36
2022-12-18T11:46:22.920Z,-5.44
2022-12-18T11:48:33.555Z,-5.11
2022-12-18T11:50:50.425Z,-5.11
2022-12-18T11:53:02.813Z,-5.01
2022-12-18T11:55:17.763Z,-4.87
2022-12-18T11:57:38.168Z,-4.56
2022-12-18T11:59:57.141Z,-4.50
2022-12-18T12:02:29.011Z,-4.41
2022-12-18T12:05:04.632Z,-4.76
2022-12-18T12:07:27.746Z,-4.53
2022-12-18T12:09:44.777Z,-4.54
2022-12-18T12:12:02.359Z,-4.51
2022-12-18T12:14:28.663Z,-4.55
2022-12-18T12:16:41.239Z,-4.62
2022-12-18T12:19:03.859Z,-4.61
2022-12-18T12:21:16.104Z,-4.97
2022-12-18T12:23:32.444Z,-4.73
2022-12-18T12:25:45.941Z,-4.44
2022-12-18T12:28:04.551Z,-4.45
2022-12-18T12:30:13.110Z,-4.41
2022-12-18T12:32:37.975Z,-4.64
2022-12-18T12:35:00.951Z,-4.36
2022-12-18T12:37:27.052Z,-4.24
2022-12-18T12:39:38.085Z,-4.08
2022-12-18T12:41:59.956Z,-4.03
2022-12-18T12:44:10.728Z,-4.10
2022-12-18T12:46:19.984Z,-4.20
2022-12-18T12:48:40.082Z,-4.05
2022-12-18T12:50:45.747Z,-3.76
2022-12-18T12:52:55.453Z,-4.06
2022-12-18T12:55:02.122Z,-4.27
2022-12-18T12:57:15.907Z,-4.08
2022-12-18T12:59:35.077Z,-3.83
2022-12-18T13:01:50.963Z,-3.86
2022-12-18T13:04:07.860Z,-3.78
2022-12-18T13:06:21.816Z,-3.76
2022-12-18T13:08:30.891Z,-3.65
2022-12-18T13:10:40.861Z,-3.64
2022-12-18T13:12:57.745Z,-3.39
2022-12-18T13:15:24.318Z,-3.56
2022-12-18T13:17:34.595Z,-3.72
2022-12-18T13:19:39.732Z,-3.48
2022-12-18T13:21:45.281Z,-3.69
2022-12-18T13:23:51.099Z,-3.82
2022-12-18T13:25:57.819Z,-4.12
2022-12-18T13:28:13.697Z,-3.93
2022-12-18T13:30:49.574Z,-4.07
2022-12-18T13:34:24.563Z,-4.21
2022-12-18T13:36:34.447Z,-4.19
2022-12-18T13:38:43.104Z,-4.62
2022-12-18T13:41:01.051Z,-4.62
2022-12-18T13:43:40.536Z,-4.54
2022-12-18T13:45:51.445Z,-4.61
2022-12-18T13:47:57.155Z,-4.42
2022-12-18T13:50:03.274Z,-4.45
2022-12-18T13:52:22.015Z,-4.51
2022-12-18T13:54:34.533Z,-4.31
2022-12-18T13:56:48.645Z,-4.45
2022-12-18T13:59:18.549Z,-4.31
2022-12-18T14:01:27.228Z,-4.64
2022-12-18T14:03:34.292Z,-4.77
2022-12-18T14:05:44.348Z,-4.64
2022-12-18T14:07:50.334Z,-4.79
2022-12-18T14:12:43.962Z,-4.66
2022-12-18T14:14:55.632Z,-4.68
2022-12-18T14:17:02.749Z,-4.75
2022-12-18T14:19:17.884Z,-4.94
2022-12-18T14:23:40.118Z,-4.94
2022-12-18T14:25:50.714Z,-4.92
2022-12-18T14:28:06.486Z,-5.01
2022-12-18T14:30:34.080Z,-5.02
2022-12-18T14:32:40.323Z,-4.99
2022-12-18T14:34:45.342Z,-5.08
2022-12-18T14:36:57.198Z,-5.10
2022-12-18T14:39:03.213Z,-5.17
2022-12-18T14:41:13.660Z,-5.26
2022-12-18T14:43:18.717Z,-5.35
2022-12-18T14:45:44.880Z,-5.36
2022-12-18T14:47:50.010Z,-5.39
2022-12-18T14:49:55.068Z,-5.48
2022-12-18T14:52:05.919Z,-5.58
2022-12-18T14:54:21.260Z,-5.62
2022-12-18T14:56:29.541Z,-5.64
2022-12-18T14:58:34.647Z,-5.69
2022-12-18T15:00:46.232Z,-5.68
2022-12-18T15:02:56.248Z,-5.63
2022-12-18T15:05:12.943Z,-5.73
2022-12-18T15:07:20.819Z,-5.83
2022-12-18T15:09:28.852Z,-5.92
2022-12-18T15:11:47.173Z,-5.94
2022-12-18T15:13:52.255Z,-6.01
2022-12-18T15:16:02.403Z,-5.99
2022-12-18T15:18:14.952Z,-6.11
2022-12-18T15:20:19.955Z,-6.16
2022-12-18T15:22:30.812Z,-6.18
2022-12-18T15:24:36.629Z,-6.23
2022-12-18T15:26:42.293Z,-6.32
2022-12-18T15:28:51.301Z,-6.38
2022-12-18T15:31:23.582Z,-6.46
2022-12-18T15:33:33.481Z,-6.49
2022-12-18T15:35:42.411Z,-6.43
2022-12-18T15:37:50.813Z,-6.50
2022-12-18T15:39:55.796Z,-6.45
2022-12-18T15:42:13.311Z,-6.49
2022-12-18T15:44:28.365Z,-6.43
2022-12-18T15:46:35.948Z,-6.44
2022-12-18T15:48:44.763Z,-6.58
2022-12-18T15:50:49.913Z,-6.65
2022-12-18T15:52:58.530Z,-6.72
2022-12-18T15:55:16.065Z,-6.67
2022-12-18T15:57:27.562Z,-6.70
2022-12-18T15:59:32.589Z,-6.73
2022-12-18T16:01:42.655Z,-6.69
2022-12-18T16:03:48.145Z,-6.64
2022-12-18T16:05:54.015Z,-6.66
2022-12-18T16:08:00.334Z,-6.65
2022-12-18T16:10:05.807Z,-6.76
2022-12-18T16:12:18.575Z,-6.80
2022-12-18T16:14:27.608Z,-6.87
2022-12-18T16:16:32.623Z,-6.70
2022-12-18T16:18:40.638Z,-6.67
2022-12-18T16:20:46.192Z,-6.63
2022-12-18T16:22:53.160Z,-6.66
2022-12-18T16:24:59.826Z,-6.56
2022-12-18T16:27:05.386Z,-6.55
2022-12-18T16:29:11.007Z,-6.52
2022-12-18T16:31:17.595Z,-6.51
2022-12-18T16:33:22.948Z,-6.49
2022-12-18T16:35:30.977Z,-6.48
2022-12-18T16:37:36.000Z,-6.47
2022-12-18T16:39:42.363Z,-6.36
2022-12-18T16:41:48.443Z,-6.38
2022-12-18T16:43:55.123Z,-6.32
2022-12-18T16:46:02.830Z,-6.28
2022-12-18T16:48:08.891Z,-6.24
2022-12-18T16:50:14.975Z,-6.14
2022-12-18T16:52:23.497Z,-6.12
2022-12-18T16:54:30.455Z,-6.02
2022-12-18T16:56:36.127Z,-6.02
2022-12-18T16:58:41.145Z,-5.96
2022-12-18T17:00:48.030Z,-5.98
2022-12-18T17:02:53.184Z,-6.02
2022-12-18T17:05:00.020Z,-5.96
2022-12-18T17:07:05.064Z,-5.45
2022-12-18T17:09:17.533Z,-5.06
2022-12-18T17:11:22.612Z,-4.63
2022-12-18T17:13:30.291Z,-4.47
2022-12-18T17:15:38.879Z,-4.24
2022-12-18T17:17:44.023Z,-4.18
2022-12-18T17:19:49.333Z,-3.99
2022-12-18T17:21:55.844Z,-3.92
2022-12-18T17:24:03.713Z,-3.89
2022-12-18T17:26:12.029Z,-3.83
2022-12-18T17:28:16.996Z,-3.72
2022-12-18T17:30:22.451Z,-3.74
2022-12-18T17:32:27.551Z,-3.73
2022-12-18T17:34:32.536Z,-3.61
2022-12-18T17:36:39.206Z,-3.58
2022-12-18T17:38:44.999Z,-3.50
2022-12-18T17:40:49.944Z,-3.46
2022-12-18T17:42:58.744Z,-3.43
2022-12-18T17:45:03.724Z,-3.31
2022-12-18T17:47:12.030Z,-3.26
2022-12-18T17:49:17.299Z,-3.25
2022-12-18T17:51:23.024Z,-3.22
2022-12-18T17:53:27.980Z,-3.23
2022-12-18T17:55:33.266Z,-3.23
2022-12-18T17:57:38.278Z,-3.18
2022-12-18T17:59:45.974Z,-3.15
2022-12-18T18:01:51.260Z,-3.10
2022-12-18T18:04:00.531Z,-3.04
2022-12-18T18:06:05.753Z,-2.97
2022-12-18T18:08:10.776Z,-3.01
2022-12-18T18:10:15.902Z,-2.97
2022-12-18T18:12:33.357Z,-2.85
2022-12-18T18:14:38.747Z,-2.86
2022-12-18T18:16:49.516Z,-2.77
2022-12-18T18:18:54.621Z,-2.77
2022-12-18T18:20:59.899Z,-2.75
2022-12-18T18:23:05.795Z,-2.70
2022-12-18T18:25:12.759Z,-2.66
2022-12-18T18:27:18.986Z,-2.65
2022-12-18T18:29:30.323Z,-2.67
2022-12-18T18:31:40.854Z,-2.68
2022-12-18T18:33:49.791Z,-2.67
2022-12-18T18:35:54.997Z,-2.74
2022-12-18T18:38:00.082Z,-2.76
2022-12-18T18:40:05.315Z,-2.75
2022-12-18T18:42:10.856Z,-2.69
2022-12-18T18:44:15.880Z,-2.62
2022-12-18T18:46:20.935Z,-2.68
2022-12-18T18:48:27.343Z,-2.70
2022-12-18T18:50:38.046Z,-2.72
2022-12-18T18:52:43.832Z,-2.70
2022-12-18T18:55:11.646Z,-2.73
2022-12-18T18:57:20.892Z,-2.74
2022-12-18T18:59:31.517Z,-2.73
2022-12-18T19:01:37.273Z,-2.67
2022-12-18T19:03:43.903Z,-2.68
2022-12-18T19:05:59.829Z,-2.71
2022-12-18T19:08:05.106Z,-2.73
2022-12-18T19:10:12.063Z,-2.72
2022-12-18T19:12:38.252Z,-2.72
2022-12-18T19:14:45.618Z,-2.74
2022-12-18T19:16:50.735Z,-2.75
2022-12-18T19:19:01.559Z,-2.77
2022-12-18T19:21:10.265Z,-2.79
2022-12-18T19:23:15.674Z,-2.77
2022-12-18T19:25:20.947Z,-2.78
2022-12-18T19:27:25.941Z,-2.77
2022-12-18T19:29:31.066Z,-2.81
2022-12-18T19:31:37.122Z,-2.83
2022-12-18T19:33:46.175Z,-2.80
2022-12-18T19:35:51.488Z,-2.78
2022-12-18T19:37:59.585Z,-2.71
2022-12-18T19:40:06.087Z,-2.61
2022-12-18T19:42:23.015Z,-2.62
2022-12-18T19:44:30.618Z,-2.62
2022-12-18T19:46:36.207Z,-2.59
2022-12-18T19:48:47.030Z,-2.57
2022-12-18T19:50:52.016Z,-2.65
2022-12-18T19:52:59.699Z,-2.70
2022-12-18T19:55:05.126Z,-2.73
2022-12-18T19:57:11.637Z,-2.73
2022-12-18T19:59:19.029Z,-2.76
2022-12-18T20:01:26.896Z,-2.81
2022-12-18T20:03:33.013Z,-2.80
2022-12-18T20:05:38.825Z,-2.78
2022-12-18T20:07:44.251Z,-2.79
2022-12-18T20:09:59.608Z,-2.83
2022-12-18T20:12:10.303Z,-2.78
2022-12-18T20:14:19.620Z,-2.80
2022-12-18T20:16:28.489Z,-2.81
2022-12-18T20:18:34.984Z,-2.77
2022-12-18T20:20:40.741Z,-2.77
2022-12-18T20:22:45.828Z,-2.73
2022-12-18T20:24:53.373Z,-2.70
2022-12-18T20:26:59.311Z,-2.70
2022-12-18T20:29:04.306Z,-2.75
2022-12-18T20:31:13.259Z,-2.76
2022-12-18T20:33:19.860Z,-2.68
2022-12-18T20:35:28.555Z,-2.68
2022-12-18T20:37:35.009Z,-2.70
2022-12-18T20:39:42.592Z,-2.71
2022-12-18T20:41:51.036Z,-2.61
2022-12-18T20:43:56.079Z,-2.58
2022-12-18T20:46:05.541Z,-2.58
2022-12-18T20:48:11.233Z,-2.53
2022-12-18T20:50:16.251Z,-2.51
2022-12-18T20:52:22.414Z,-2.52
2022-12-18T20:54:30.413Z,-2.47
2022-12-18T20:56:35.447Z,-2.43
2022-12-18T20:58:43.433Z,-2.42
2022-12-18T21:00:48.465Z,-2.41
2022-12-18T21:02:53.605Z,-2.34
2022-12-18T21:04:58.924Z,-2.29
2022-12-18T21:07:03.902Z,-2.32
2022-12-18T21:09:09.437Z,-2.33
2022-12-18T21:11:40.161Z,-2.33
2022-12-18T21:13:47.745Z,-2.34
2022-12-18T21:15:55.621Z,-2.33
2022-12-18T21:18:00.597Z,-2.32
2022-12-18T21:20:05.913Z,-2.32
2022-12-18T21:22:11.168Z,-2.33
2022-12-18T21:24:16.636Z,-2.35
2022-12-18T21:26:24.409Z,-2.37
2022-12-18T21:28:29.481Z,-2.35
2022-12-18T21:30:37.160Z,-2.36
2022-12-18T21:32:42.168Z,-2.38
2022-12-18T21:34:48.357Z,-2.38
2022-12-18T21:36:53.814Z,-2.39
2022-12-18T21:38:59.721Z,-2.39
2022-12-18T21:41:10.104Z,-2.37
2022-12-18T21:43:28.346Z,-2.38
2022-12-18T21:45:35.926Z,-2.26
2022-12-18T21:47:40.927Z,-2.26
2022-12-18T21:49:46.027Z,-2.21
2022-12-18T21:51:52.047Z,-2.23
2022-12-18T21:53:57.062Z,-2.23
2022-12-18T21:56:03.020Z,-2.17
2022-12-18T21:58:08.096Z,-2.17
2022-12-18T22:00:18.438Z,-2.13
2022-12-18T22:02:27.238Z,-2.15
2022-12-18T22:04:32.635Z,-2.19
2022-12-18T22:06:38.183Z,-2.16
2022-12-18T22:08:43.812Z,-2.16
2022-12-18T22:10:49.483Z,-2.15
2022-12-18T22:12:55.025Z,-2.20
2022-12-18T22:15:00.815Z,-2.23
2022-12-18T22:17:05.848Z,-2.21
2022-12-18T22:19:15.420Z,-2.20
2022-12-18T22:21:29.802Z,-2.25
2022-12-18T22:23:35.299Z,-2.25
2022-12-18T22:25:40.630Z,-2.26
2022-12-18T22:28:06.278Z,-2.28
2022-12-18T22:30:14.806Z,-2.25
2022-12-18T22:32:30.879Z,-2.28
2022-12-18T22:34:39.631Z,-2.32
2022-12-18T22:36:47.396Z,-2.29
2022-12-18T22:38:52.370Z,-2.31
2022-12-18T22:40:59.266Z,-2.34
2022-12-18T22:43:04.404Z,-2.36
2022-12-18T22:45:11.226Z,-2.36
2022-12-18T22:47:16.745Z,-2.35
2022-12-18T22:49:24.346Z,-2.30
2022-12-18T22:51:32.113Z,-2.26
2022-12-18T22:53:37.153Z,-2.30
2022-12-18T22:55:42.475Z,-2.30
2022-12-18T22:57:49.110Z,-2.31
2022-12-18T22:59:55.361Z,-2.30
2022-12-18T23:02:00.855Z,-2.26
2022-12-18T23:04:06.064Z,-2.28
2022-12-18T23:06:12.882Z,-2.28
2022-12-18T23:08:21.199Z,-2.25
2022-12-18T23:10:26.460Z,-2.25
2022-12-18T23:12:31.470Z,-2.26
2022-12-18T23:14:38.380Z,-2.22
2022-12-18T23:16:43.769Z,-2.22
2022-12-18T23:18:56.075Z,-2.22
2022-12-18T23:21:01.104Z,-2.19
2022-12-18T23:23:06.433Z,-2.19
2022-12-18T23:25:14.233Z,-2.23
2022-12-18T23:27:19.523Z,-2.19
2022-12-18T23:29:24.520Z,-2.15
2022-12-18T23:31:32.473Z,-2.18
2022-12-18T23:33:37.633Z,-2.19
2022-12-18T23:35:42.673Z,-2.19
2022-12-18T23:37:58.735Z,-2.17
2022-12-18T23:40:05.220Z,-2.14
2022-12-18T23:42:12.931Z,-2.12
2022-12-18T23:44:19.761Z,-2.14
2022-12-18T23:46:27.654Z,-2.15
2022-12-18T23:48:34.774Z,-2.16
2022-12-18T23:50:40.503Z,-2.16
2022-12-18T23:52:45.513Z,-2.20
2022-12-18T23:54:50.844Z,-2.16
2022-12-18T23:56:55.833Z,-2.17
2022-12-18T23:59:03.816Z,-2.20
